createdAt,value
2019-04-04T00:00:01.185Z,96.844482
2019-04-04T00:00:14.290Z,96.844482
2019-04-04T00:00:24.904Z,96.844482
2019-04-04T00:00:36.791Z,96.844482
2019-04-04T00:00:49.620Z,96.844482
2019-04-04T00:01:01.544Z,96.844482
2019-04-04T00:01:13.418Z,96.844482
2019-04-04T00:01:25.234Z,96.844482
2019-04-04T00:01:37.068Z,96.948242
2019-04-04T00:01:49.910Z,96.948242
2019-04-04T00:02:01.932Z,96.948242
2019-04-04T00:02:13.772Z,96.948242
2019-04-04T00:02:25.642Z,96.844482
2019-04-04T00:02:37.543Z,96.844482
2019-04-04T00:02:49.749Z,96.844482
2019-04-04T00:03:01.253Z,96.844482
2019-04-04T00:03:13.146Z,96.948242
2019-04-04T00:03:24.959Z,96.948242
2019-04-04T00:03:36.836Z,96.948242
2019-04-04T00:03:51.465Z,96.948242
2019-04-04T00:04:00.523Z,96.948242
2019-04-04T00:04:12.377Z,96.948242
2019-04-04T00:04:25.195Z,96.948242
2019-04-04T00:04:37.051Z,96.948242
2019-04-04T00:04:48.876Z,96.948242
2019-04-04T00:05:00.703Z,96.948242
2019-04-04T00:05:12.562Z,96.948242
2019-04-04T00:05:26.112Z,96.948242
2019-04-04T00:05:36.302Z,96.948242
2019-04-04T00:05:48.230Z,96.948242
2019-04-04T00:06:00.070Z,96.948242
2019-04-04T00:06:11.909Z,96.948242
2019-04-04T00:06:25.006Z,96.948242
2019-04-04T00:06:35.648Z,97.052002
2019-04-04T00:06:47.452Z,97.052002
2019-04-04T00:07:00.275Z,97.052002
2019-04-04T00:07:12.207Z,97.052002
2019-04-04T00:07:24.038Z,97.052002
2019-04-04T00:07:35.898Z,97.052002
2019-04-04T00:07:47.757Z,97.052002
2019-04-04T00:08:00.015Z,97.052002
2019-04-04T00:08:11.455Z,97.052002
2019-04-04T00:08:23.306Z,97.052002
2019-04-04T00:08:35.125Z,97.052002
2019-04-04T00:08:46.961Z,97.052002
2019-04-04T00:09:00.057Z,97.052002
2019-04-04T00:09:10.653Z,97.052002
2019-04-04T00:09:22.487Z,97.052002
2019-04-04T00:09:35.347Z,97.052002
2019-04-04T00:09:47.179Z,97.052002
2019-04-04T00:09:59.015Z,97.052002
2019-04-04T00:10:10.912Z,96.948242
2019-04-04T00:10:22.749Z,96.948242
2019-04-04T00:10:35.570Z,96.948242
2019-04-04T00:10:47.471Z,96.948242
2019-04-04T00:10:59.356Z,96.948242
2019-04-04T00:11:11.198Z,96.948242
2019-04-04T00:11:23.030Z,96.948242
2019-04-04T00:11:35.002Z,96.948242
2019-04-04T00:11:46.709Z,96.948242
2019-04-04T00:11:58.546Z,96.948242
2019-04-04T00:12:11.433Z,97.052002
2019-04-04T00:12:23.281Z,97.052002
2019-04-04T00:12:35.114Z,97.052002
2019-04-04T00:12:46.938Z,97.094727
2019-04-04T00:12:58.773Z,97.155762
2019-04-04T00:13:11.111Z,97.155762
2019-04-04T00:13:22.416Z,97.198486
2019-04-04T00:13:34.248Z,97.198486
2019-04-04T00:13:46.070Z,97.302246
2019-04-04T00:13:57.924Z,97.302246
2019-04-04T00:14:12.622Z,97.302246
2019-04-04T00:14:21.581Z,97.302246
2019-04-04T00:14:33.418Z,97.302246
2019-04-04T00:14:46.240Z,97.406006
2019-04-04T00:14:58.157Z,97.406006
2019-04-04T00:15:09.984Z,97.406006
2019-04-04T00:15:21.797Z,97.406006
2019-04-04T00:15:33.632Z,97.406006
2019-04-04T00:15:46.026Z,97.406006
2019-04-04T00:15:57.333Z,97.406006
2019-04-04T00:16:09.160Z,97.406006
2019-04-04T00:16:21.007Z,97.406006
2019-04-04T00:16:32.840Z,97.406006
2019-04-04T00:16:44.686Z,97.406006
2019-04-04T00:16:56.509Z,97.406006
2019-04-04T00:17:08.472Z,97.406006
2019-04-04T00:17:22.865Z,97.509766
2019-04-04T00:17:32.174Z,97.509766
2019-04-04T00:17:44.006Z,97.509766
2019-04-04T00:17:56.823Z,97.509766
2019-04-04T00:18:08.692Z,97.509766
2019-04-04T00:18:20.518Z,97.509766
2019-04-04T00:18:32.425Z,97.509766
2019-04-04T00:18:44.255Z,97.509766
2019-04-04T00:18:58.351Z,97.509766
2019-04-04T00:19:08.002Z,97.509766
2019-04-04T00:19:19.835Z,97.509766
2019-04-04T00:19:32.684Z,97.509766
2019-04-04T00:19:44.522Z,97.613525
2019-04-04T00:19:56.354Z,97.613525
2019-04-04T00:20:08.262Z,97.564697
2019-04-04T00:20:20.094Z,97.564697
2019-04-04T00:20:32.916Z,97.564697
2019-04-04T00:20:44.837Z,97.668457
2019-04-04T00:20:56.682Z,97.668457
2019-04-04T00:21:08.517Z,97.668457
2019-04-04T00:21:20.378Z,97.772217
2019-04-04T00:21:33.915Z,97.772217
2019-04-04T00:21:44.136Z,97.772217
2019-04-04T00:21:55.973Z,97.772217
2019-04-04T00:22:07.825Z,97.875977
2019-04-04T00:22:19.727Z,97.875977
2019-04-04T00:22:31.594Z,97.875977
2019-04-04T00:22:44.417Z,97.875977
2019-04-04T00:22:56.302Z,97.875977
2019-04-04T00:23:09.234Z,97.979736
2019-04-04T00:23:21.067Z,97.979736
2019-04-04T00:23:32.904Z,97.979736
2019-04-04T00:23:44.800Z,97.979736
2019-04-04T00:23:56.652Z,97.979736
2019-04-04T00:24:09.047Z,97.979736
2019-04-04T00:24:20.301Z,98.083496
2019-04-04T00:24:32.163Z,98.083496
2019-04-04T00:24:43.979Z,98.083496
2019-04-04T00:24:55.846Z,98.083496
2019-04-04T00:25:09.578Z,98.083496
2019-04-04T00:25:19.503Z,98.083496
2019-04-04T00:25:31.338Z,98.083496
2019-04-04T00:25:44.160Z,98.083496
2019-04-04T00:25:55.990Z,98.083496
2019-04-04T00:26:08.846Z,98.083496
2019-04-04T00:26:19.639Z,98.083496
2019-04-04T00:26:31.471Z,98.083496
2019-04-04T00:26:44.283Z,98.083496
2019-04-04T00:26:56.117Z,98.083496
2019-04-04T00:27:07.987Z,98.083496
2019-04-04T00:27:19.804Z,98.083496
2019-04-04T00:27:31.636Z,97.979736
2019-04-04T00:27:43.929Z,97.979736
2019-04-04T00:27:55.289Z,97.979736
2019-04-04T00:28:07.148Z,97.979736
2019-04-04T00:28:18.977Z,97.979736
2019-04-04T00:28:30.811Z,97.979736
2019-04-04T00:28:44.017Z,97.875977
2019-04-04T00:28:54.462Z,97.875977
2019-04-04T00:29:06.287Z,97.875977
2019-04-04T00:29:19.133Z,97.875977
2019-04-04T00:29:30.964Z,97.772217
2019-04-04T00:29:42.794Z,97.772217
2019-04-04T00:29:54.607Z,97.772217
2019-04-04T00:30:06.439Z,97.668457
2019-04-04T00:30:19.257Z,97.668457
2019-04-04T00:30:31.092Z,97.668457
2019-04-04T00:30:42.923Z,97.564697
2019-04-04T00:30:54.748Z,97.564697
2019-04-04T00:31:07.317Z,97.564697
2019-04-04T00:31:20.143Z,97.564697
2019-04-04T00:31:31.983Z,97.564697
2019-04-04T00:31:43.815Z,97.564697
2019-04-04T00:31:55.639Z,97.467041
2019-04-04T00:32:07.477Z,97.467041
2019-04-04T00:32:20.949Z,97.467041
2019-04-04T00:32:31.142Z,97.467041
2019-04-04T00:32:42.997Z,97.467041
2019-04-04T00:32:55.847Z,97.363281
2019-04-04T00:33:07.676Z,97.363281
2019-04-04T00:33:19.508Z,97.363281
2019-04-04T00:33:31.381Z,97.363281
2019-04-04T00:33:43.242Z,97.363281
2019-04-04T00:33:55.816Z,97.363281
2019-04-04T00:34:06.903Z,97.363281
2019-04-04T00:34:18.727Z,97.363281
2019-04-04T00:34:31.556Z,97.363281
2019-04-04T00:34:43.383Z,97.363281
2019-04-04T00:34:55.220Z,97.363281
2019-04-04T00:35:07.046Z,97.363281
2019-04-04T00:35:18.877Z,97.363281
2019-04-04T00:35:31.781Z,97.302246
2019-04-04T00:35:43.519Z,97.302246
2019-04-04T00:35:55.350Z,97.259521
2019-04-04T00:36:07.169Z,97.259521
2019-04-04T00:36:19.010Z,97.259521
2019-04-04T00:36:33.694Z,97.302246
2019-04-04T00:36:42.662Z,97.259521
2019-04-04T00:36:54.498Z,97.302246
2019-04-04T00:37:07.322Z,97.302246
2019-04-04T00:37:19.172Z,97.259521
2019-04-04T00:37:30.998Z,97.302246
2019-04-04T00:37:43.815Z,97.259521
2019-04-04T00:37:55.648Z,97.302246
2019-04-04T00:38:08.462Z,97.259521
2019-04-04T00:38:20.294Z,97.259521
2019-04-04T00:38:32.153Z,97.259521
2019-04-04T00:38:43.974Z,97.259521
2019-04-04T00:38:55.807Z,97.259521
2019-04-04T00:39:09.412Z,97.198486
2019-04-04T00:39:19.466Z,97.259521
2019-04-04T00:39:31.302Z,97.302246
2019-04-04T00:39:44.122Z,97.259521
2019-04-04T00:39:55.955Z,97.259521
2019-04-04T00:40:10.747Z,97.259521
2019-04-04T00:40:19.632Z,97.259521
2019-04-04T00:40:31.467Z,97.259521
2019-04-04T00:40:44.284Z,97.259521
2019-04-04T00:40:56.134Z,97.259521
2019-04-04T00:41:07.962Z,97.259521
2019-04-04T00:41:19.790Z,97.259521
2019-04-04T00:41:31.615Z,97.363281
2019-04-04T00:41:44.840Z,97.363281
2019-04-04T00:41:55.276Z,97.363281
2019-04-04T00:42:07.109Z,97.363281
2019-04-04T00:42:19.929Z,97.363281
2019-04-04T00:42:31.759Z,97.467041
2019-04-04T00:42:43.594Z,97.467041
2019-04-04T00:42:55.421Z,97.467041
2019-04-04T00:43:07.274Z,97.467041
2019-04-04T00:43:21.479Z,97.467041
2019-04-04T00:43:30.936Z,97.467041
2019-04-04T00:43:42.769Z,97.467041
2019-04-04T00:43:55.577Z,97.467041
2019-04-04T00:44:07.396Z,97.467041
2019-04-04T00:44:19.218Z,97.467041
2019-04-04T00:44:31.046Z,97.467041
2019-04-04T00:44:42.930Z,97.467041
2019-04-04T00:44:55.718Z,97.467041
2019-04-04T00:45:07.483Z,97.467041
2019-04-04T00:45:20.104Z,97.467041
2019-04-04T00:45:32.794Z,97.467041
2019-04-04T00:45:45.413Z,97.467041
2019-04-04T00:46:00.440Z,97.467041
2019-04-04T00:46:10.686Z,97.467041
2019-04-04T00:46:23.300Z,97.467041
2019-04-04T00:46:35.920Z,97.467041
2019-04-04T00:46:48.562Z,97.467041
2019-04-04T00:47:02.238Z,97.467041
2019-04-04T00:47:14.780Z,97.467041
2019-04-04T00:47:27.430Z,97.363281
2019-04-04T00:47:40.057Z,97.363281
2019-04-04T00:47:52.679Z,97.363281
2019-04-04T00:48:06.310Z,97.363281
2019-04-04T00:48:18.917Z,97.363281
2019-04-04T00:48:32.123Z,97.363281
2019-04-04T00:48:44.207Z,97.259521
2019-04-04T00:48:56.700Z,97.259521
2019-04-04T00:49:08.531Z,97.259521
2019-04-04T00:49:20.366Z,97.259521
2019-04-04T00:49:32.204Z,97.259521
2019-04-04T00:49:44.029Z,97.259521
2019-04-04T00:49:55.905Z,97.155762
2019-04-04T00:50:08.722Z,97.155762
2019-04-04T00:50:20.563Z,97.155762
2019-04-04T00:50:32.391Z,97.052002
2019-04-04T00:50:44.234Z,97.052002
2019-04-04T00:50:56.068Z,97.052002
2019-04-04T00:51:08.887Z,97.052002
2019-04-04T00:51:20.699Z,96.948242
2019-04-04T00:51:32.537Z,96.948242
2019-04-04T00:51:44.361Z,96.948242
2019-04-04T00:51:56.195Z,96.844482
2019-04-04T00:52:09.911Z,96.887207
2019-04-04T00:52:19.865Z,96.789551
2019-04-04T00:52:31.697Z,96.685791
2019-04-04T00:52:44.505Z,96.685791
2019-04-04T00:52:56.343Z,96.582031
2019-04-04T00:53:08.178Z,96.582031
2019-04-04T00:53:20.008Z,96.582031
2019-04-04T00:53:31.841Z,96.478271
2019-04-04T00:53:44.662Z,96.478271
2019-04-04T00:53:56.494Z,96.478271
2019-04-04T00:54:08.334Z,96.478271
2019-04-04T00:54:20.162Z,96.520996
2019-04-04T00:54:31.995Z,96.417236
2019-04-04T00:54:44.885Z,96.417236
2019-04-04T00:54:55.670Z,96.417236
2019-04-04T00:55:07.504Z,96.417236
2019-04-04T00:55:19.381Z,96.417236
2019-04-04T00:55:31.216Z,96.417236
2019-04-04T00:55:43.051Z,96.417236
2019-04-04T00:55:54.877Z,96.520996
2019-04-04T00:56:06.718Z,96.520996
2019-04-04T00:56:19.526Z,96.520996
2019-04-04T00:56:31.379Z,96.520996
2019-04-04T00:56:43.194Z,96.520996
2019-04-04T00:56:55.017Z,96.520996
2019-04-04T00:57:06.855Z,96.520996
2019-04-04T00:57:18.842Z,96.520996
2019-04-04T00:57:30.518Z,96.520996
2019-04-04T00:57:42.355Z,96.417236
2019-04-04T00:57:54.174Z,96.417236
2019-04-04T00:58:06.008Z,96.417236
2019-04-04T00:58:18.866Z,96.417236
2019-04-04T00:58:29.679Z,96.417236
2019-04-04T00:58:41.511Z,96.417236
2019-04-04T00:58:54.335Z,96.417236
2019-04-04T00:59:06.163Z,96.417236
2019-04-04T00:59:18.003Z,96.417236
2019-04-04T00:59:29.824Z,96.417236
2019-04-04T00:59:41.651Z,96.417236
2019-04-04T00:59:53.985Z,96.417236
2019-04-04T01:00:05.320Z,96.520996
2019-04-04T01:00:17.169Z,96.520996
2019-04-04T01:00:29.066Z,96.417236
2019-04-04T01:00:40.896Z,96.417236
2019-04-04T01:00:52.890Z,96.520996
2019-04-04T01:01:04.554Z,96.417236
2019-04-04T01:01:16.725Z,96.417236
2019-04-04T01:01:29.208Z,96.520996
2019-04-04T01:01:42.027Z,96.520996
2019-04-04T01:01:55.019Z,96.520996
2019-04-04T01:02:05.676Z,96.563721
2019-04-04T01:02:17.509Z,96.520996
2019-04-04T01:02:30.337Z,96.563721
2019-04-04T01:02:42.177Z,96.563721
2019-04-04T01:02:54.021Z,96.563721
2019-04-04T01:03:05.843Z,96.563721
2019-04-04T01:03:17.688Z,96.563721
2019-04-04T01:03:30.013Z,96.563721
2019-04-04T01:03:41.340Z,96.563721
2019-04-04T01:03:53.169Z,96.563721
2019-04-04T01:04:04.988Z,96.563721
2019-04-04T01:04:16.825Z,96.563721
2019-04-04T01:04:30.734Z,96.563721
2019-04-04T01:04:40.479Z,96.563721
2019-04-04T01:04:52.345Z,96.563721
2019-04-04T01:05:05.129Z,96.563721
2019-04-04T01:05:16.959Z,96.563721
2019-04-04T01:05:30.056Z,96.563721
2019-04-04T01:05:40.764Z,96.66748
2019-04-04T01:05:52.594Z,96.66748
2019-04-04T01:06:05.417Z,96.66748
2019-04-04T01:06:17.249Z,96.66748
2019-04-04T01:06:29.075Z,96.66748
2019-04-04T01:06:40.901Z,96.66748
2019-04-04T01:06:53.059Z,96.66748
2019-04-04T01:07:06.606Z,96.77124
2019-04-04T01:07:19.204Z,96.77124
2019-04-04T01:07:31.775Z,96.77124
2019-04-04T01:07:44.363Z,96.77124
2019-04-04T01:07:56.922Z,96.77124
2019-04-04T01:08:10.451Z,96.77124
2019-04-04T01:08:23.035Z,96.875
2019-04-04T01:08:37.891Z,96.875
2019-04-04T01:08:48.163Z,96.875
2019-04-04T01:09:00.691Z,96.875
2019-04-04T01:09:14.314Z,96.97876
2019-04-04T01:09:26.754Z,96.97876
2019-04-04T01:09:39.373Z,96.97876
2019-04-04T01:09:51.997Z,97.08252
2019-04-04T01:10:04.535Z,97.08252
2019-04-04T01:10:18.927Z,97.08252
2019-04-04T01:10:28.741Z,97.186279
2019-04-04T01:10:41.504Z,97.186279
2019-04-04T01:10:54.107Z,97.186279
2019-04-04T01:11:06.662Z,97.186279
2019-04-04T01:11:20.286Z,97.290039
2019-04-04T01:11:31.829Z,97.290039
2019-04-04T01:11:44.438Z,97.290039
2019-04-04T01:11:57.040Z,97.393799
2019-04-04T01:12:09.669Z,97.393799
2019-04-04T01:12:23.247Z,97.393799
2019-04-04T01:12:35.850Z,97.497559
2019-04-04T01:12:50.133Z,97.497559
2019-04-04T01:13:01.000Z,97.497559
2019-04-04T01:13:13.610Z,97.497559
2019-04-04T01:13:27.619Z,97.497559
2019-04-04T01:13:39.737Z,97.644043
2019-04-04T01:13:52.356Z,97.601318
2019-04-04T01:14:04.972Z,97.644043
2019-04-04T01:14:17.586Z,97.644043
2019-04-04T01:14:30.915Z,97.644043
2019-04-04T01:14:43.569Z,97.644043
2019-04-04T01:14:56.133Z,97.747803
2019-04-04T01:15:08.823Z,97.747803
2019-04-04T01:15:21.434Z,97.747803
2019-04-04T01:15:35.087Z,97.747803
2019-04-04T01:15:47.800Z,97.747803
2019-04-04T01:16:02.441Z,97.747803
2019-04-04T01:16:13.017Z,97.747803
2019-04-04T01:16:25.659Z,97.747803
2019-04-04T01:16:38.258Z,97.747803
2019-04-04T01:16:50.926Z,97.851562
2019-04-04T01:17:04.804Z,97.851562
2019-04-04T01:17:17.115Z,97.851562
2019-04-04T01:17:29.730Z,97.851562
2019-04-04T01:17:42.351Z,97.851562
2019-04-04T01:17:54.901Z,97.851562
2019-04-04T01:18:08.586Z,97.851562
2019-04-04T01:18:21.244Z,97.955322
2019-04-04T01:18:34.954Z,97.955322
2019-04-04T01:18:46.550Z,97.955322
2019-04-04T01:18:59.130Z,97.955322
2019-04-04T01:19:12.618Z,97.955322
2019-04-04T01:19:25.138Z,97.955322
2019-04-04T01:19:37.673Z,97.955322
2019-04-04T01:19:51.214Z,97.955322
2019-04-04T01:20:03.736Z,97.955322
2019-04-04T01:20:18.068Z,97.955322
2019-04-04T01:20:28.944Z,97.955322
2019-04-04T01:20:41.690Z,97.955322
2019-04-04T01:20:54.286Z,97.955322
2019-04-04T01:21:06.903Z,98.059082
2019-04-04T01:21:20.142Z,98.059082
2019-04-04T01:21:32.154Z,98.059082
2019-04-04T01:21:44.725Z,98.059082
2019-04-04T01:21:57.296Z,97.955322
2019-04-04T01:22:09.954Z,98.059082
2019-04-04T01:22:23.004Z,97.998047
2019-04-04T01:22:35.164Z,97.955322
2019-04-04T01:22:47.799Z,97.955322
2019-04-04T01:23:00.382Z,97.998047
2019-04-04T01:23:12.755Z,97.998047
2019-04-04T01:23:27.103Z,97.998047
2019-04-04T01:23:37.904Z,97.998047
2019-04-04T01:23:50.484Z,97.998047
2019-04-04T01:24:02.990Z,97.998047
2019-04-04T01:24:15.527Z,97.998047
2019-04-04T01:24:29.097Z,97.998047
2019-04-04T01:24:41.131Z,97.998047
2019-04-04T01:24:53.735Z,98.101807
2019-04-04T01:25:06.351Z,98.101807
2019-04-04T01:25:18.895Z,98.101807
2019-04-04T01:25:32.584Z,98.101807
2019-04-04T01:25:44.051Z,98.101807
2019-04-04T01:25:56.639Z,98.101807
2019-04-04T01:26:09.328Z,98.101807
2019-04-04T01:26:21.557Z,98.101807
2019-04-04T01:26:35.144Z,98.101807
2019-04-04T01:26:45.218Z,98.101807
2019-04-04T01:26:57.051Z,98.101807
2019-04-04T01:27:09.865Z,98.101807
2019-04-04T01:27:21.679Z,98.101807
2019-04-04T01:27:34.970Z,98.101807
2019-04-04T01:27:45.380Z,98.101807
2019-04-04T01:27:57.214Z,98.101807
2019-04-04T01:28:10.035Z,98.101807
2019-04-04T01:28:21.880Z,98.101807
2019-04-04T01:28:33.714Z,98.205566
2019-04-04T01:28:45.540Z,98.205566
2019-04-04T01:28:57.379Z,98.205566
2019-04-04T01:29:10.868Z,98.205566
2019-04-04T01:29:21.019Z,98.205566
2019-04-04T01:29:32.853Z,98.205566
2019-04-04T01:29:44.680Z,98.205566
2019-04-04T01:29:56.511Z,98.205566
2019-04-04T01:30:08.335Z,98.205566
2019-04-04T01:30:20.160Z,98.205566
2019-04-04T01:30:32.003Z,98.205566
2019-04-04T01:30:44.820Z,98.205566
2019-04-04T01:30:56.682Z,98.205566
2019-04-04T01:31:08.514Z,98.205566
2019-04-04T01:31:20.355Z,98.205566
2019-04-04T01:31:32.196Z,98.205566
2019-04-04T01:31:45.795Z,98.205566
2019-04-04T01:31:55.861Z,98.205566
2019-04-04T01:32:07.718Z,98.309326
2019-04-04T01:32:20.535Z,98.309326
2019-04-04T01:32:32.434Z,98.309326
2019-04-04T01:32:44.281Z,98.309326
2019-04-04T01:32:56.119Z,98.266602
2019-04-04T01:33:07.961Z,98.309326
2019-04-04T01:33:20.782Z,98.266602
2019-04-04T01:33:32.633Z,98.266602
2019-04-04T01:33:44.464Z,98.266602
2019-04-04T01:33:56.302Z,98.266602
2019-04-04T01:34:08.148Z,98.266602
2019-04-04T01:34:20.771Z,98.266602
2019-04-04T01:34:31.823Z,98.266602
2019-04-04T01:34:43.660Z,98.266602
2019-04-04T01:34:55.508Z,98.266602
2019-04-04T01:35:07.353Z,98.266602
2019-04-04T01:35:22.413Z,98.266602
2019-04-04T01:35:31.017Z,98.266602
2019-04-04T01:35:42.856Z,98.266602
2019-04-04T01:35:55.678Z,98.266602
2019-04-04T01:36:07.513Z,98.266602
2019-04-04T01:36:19.370Z,98.309326
2019-04-04T01:36:31.192Z,98.309326
2019-04-04T01:36:43.106Z,98.309326
2019-04-04T01:36:56.386Z,98.205566
2019-04-04T01:37:06.723Z,98.205566
2019-04-04T01:37:18.586Z,98.101807
2019-04-04T01:37:30.423Z,98.101807
2019-04-04T01:37:42.389Z,97.998047
2019-04-04T01:37:54.214Z,97.998047
2019-04-04T01:38:06.057Z,97.998047
2019-04-04T01:38:17.904Z,97.894287
2019-04-04T01:38:30.742Z,97.894287
2019-04-04T01:38:42.577Z,97.790527
2019-04-04T01:38:54.411Z,97.790527
2019-04-04T01:39:06.238Z,97.790527
2019-04-04T01:39:18.081Z,97.686768
2019-04-04T01:39:31.167Z,97.686768
2019-04-04T01:39:41.757Z,97.686768
2019-04-04T01:39:53.604Z,97.735596
2019-04-04T01:40:05.442Z,97.686768
2019-04-04T01:40:17.270Z,97.686768
2019-04-04T01:40:29.111Z,97.686768
2019-04-04T01:40:40.941Z,97.686768
2019-04-04T01:40:54.966Z,97.589111
2019-04-04T01:41:05.593Z,97.589111
2019-04-04T01:41:17.437Z,97.589111
2019-04-04T01:41:29.277Z,97.589111
2019-04-04T01:41:41.102Z,97.589111
2019-04-04T01:41:52.943Z,97.589111
2019-04-04T01:42:05.022Z,97.589111
2019-04-04T01:42:16.618Z,97.485352
2019-04-04T01:42:28.458Z,97.485352
2019-04-04T01:42:41.309Z,97.485352
2019-04-04T01:42:53.146Z,97.485352
2019-04-04T01:43:04.977Z,97.485352
2019-04-04T01:43:16.807Z,97.485352
2019-04-04T01:43:28.643Z,97.485352
2019-04-04T01:43:41.464Z,97.485352
2019-04-04T01:44:04.486Z,97.485352
2019-04-04T01:44:06.090Z,97.485352
2019-04-04T01:44:17.919Z,97.381592
2019-04-04T01:44:29.891Z,97.381592
2019-04-04T01:44:42.818Z,97.277832
2019-04-04T01:44:54.569Z,97.277832
2019-04-04T01:45:06.391Z,97.277832
2019-04-04T01:45:18.217Z,97.174072
2019-04-04T01:45:30.062Z,97.174072
2019-04-04T01:45:43.646Z,97.070312
2019-04-04T01:45:53.741Z,97.070312
2019-04-04T01:46:05.576Z,97.070312
2019-04-04T01:46:18.399Z,96.966553
2019-04-04T01:46:30.241Z,96.966553
2019-04-04T01:46:42.079Z,96.862793
2019-04-04T01:46:53.904Z,96.905518
2019-04-04T01:47:05.741Z,96.801758
2019-04-04T01:47:18.569Z,96.655273
2019-04-04T01:47:30.409Z,96.697998
2019-04-04T01:47:42.249Z,96.594238
2019-04-04T01:47:54.079Z,96.594238
2019-04-04T01:48:05.915Z,96.594238
2019-04-04T01:48:18.685Z,96.490479
2019-04-04T01:48:29.580Z,96.490479
2019-04-04T01:48:41.422Z,96.392822
2019-04-04T01:48:53.254Z,96.392822
2019-04-04T01:49:05.091Z,96.343994
2019-04-04T01:49:16.926Z,96.289062
2019-04-04T01:49:28.848Z,96.289062
2019-04-04T01:49:40.688Z,96.136475
2019-04-04T01:49:53.513Z,96.136475
2019-04-04T01:50:05.342Z,96.032715
2019-04-04T01:50:17.187Z,96.032715
2019-04-04T01:50:29.015Z,96.032715
2019-04-04T01:50:40.854Z,96.032715
2019-04-04T01:50:53.727Z,96.032715
2019-04-04T01:51:07.526Z,96.032715
2019-04-04T01:51:16.354Z,95.935059
2019-04-04T01:51:29.178Z,95.935059
2019-04-04T01:51:41.017Z,95.935059
2019-04-04T01:51:52.858Z,95.935059
2019-04-04T01:52:04.694Z,95.831299
2019-04-04T01:52:16.539Z,95.831299
2019-04-04T01:52:29.360Z,95.727539
2019-04-04T01:52:41.196Z,95.770264
2019-04-04T01:52:53.032Z,95.770264
2019-04-04T01:53:04.865Z,95.666504
2019-04-04T01:53:16.716Z,95.666504
2019-04-04T01:53:30.116Z,95.666504
2019-04-04T01:53:40.388Z,95.562744
2019-04-04T01:53:52.220Z,95.562744
2019-04-04T01:54:04.051Z,95.562744
2019-04-04T01:54:15.889Z,95.458984
2019-04-04T01:54:27.777Z,95.458984
2019-04-04T01:54:39.635Z,95.458984
2019-04-04T01:54:51.468Z,95.355225
2019-04-04T01:55:04.305Z,95.355225
2019-04-04T01:55:16.137Z,95.355225
2019-04-04T01:55:27.971Z,95.355225
2019-04-04T01:55:39.791Z,95.355225
2019-04-04T01:55:51.630Z,95.355225
2019-04-04T01:56:05.790Z,95.355225
2019-04-04T01:56:15.285Z,95.355225
2019-04-04T01:56:27.190Z,95.355225
2019-04-04T01:56:39.947Z,95.355225
2019-04-04T01:56:51.791Z,95.251465
2019-04-04T01:57:03.655Z,95.251465
2019-04-04T01:57:15.491Z,95.251465
2019-04-04T01:57:27.327Z,95.251465
2019-04-04T01:57:40.149Z,95.251465
2019-04-04T01:57:51.986Z,95.251465
2019-04-04T01:58:03.827Z,95.251465
2019-04-04T01:58:15.677Z,95.251465
2019-04-04T01:58:27.537Z,95.251465
2019-04-04T01:58:41.669Z,95.355225
2019-04-04T01:58:51.203Z,95.355225
2019-04-04T01:59:03.038Z,95.355225
2019-04-04T01:59:15.859Z,95.355225
2019-04-04T01:59:27.735Z,95.458984
2019-04-04T01:59:39.568Z,95.458984
2019-04-04T01:59:51.404Z,95.458984
2019-04-04T02:00:03.250Z,95.458984
2019-04-04T02:00:16.127Z,95.458984
2019-04-04T02:00:27.971Z,95.458984
2019-04-04T02:00:39.821Z,95.458984
2019-04-04T02:00:51.645Z,95.458984
2019-04-04T02:01:03.489Z,95.458984
2019-04-04T02:01:16.475Z,95.562744
2019-04-04T02:01:27.175Z,95.562744
2019-04-04T02:01:39.013Z,95.562744
2019-04-04T02:01:50.838Z,95.562744
2019-04-04T02:02:02.676Z,95.562744
2019-04-04T02:02:17.612Z,95.666504
2019-04-04T02:02:26.339Z,95.666504
2019-04-04T02:02:38.174Z,95.666504
2019-04-04T02:02:51.817Z,95.666504
2019-04-04T02:03:01.832Z,95.562744
2019-04-04T02:03:13.669Z,95.562744
2019-04-04T02:03:26.508Z,95.666504
2019-04-04T02:03:38.348Z,95.666504
2019-04-04T02:03:51.759Z,95.666504
2019-04-04T02:04:02.009Z,95.562744
2019-04-04T02:04:13.849Z,95.562744
2019-04-04T02:04:26.689Z,95.562744
2019-04-04T02:04:38.535Z,95.562744
2019-04-04T02:04:50.369Z,95.605469
2019-04-04T02:05:02.192Z,95.605469
2019-04-04T02:05:14.065Z,95.605469
2019-04-04T02:05:26.961Z,95.605469
2019-04-04T02:05:37.734Z,95.709229
2019-04-04T02:05:49.581Z,95.709229
2019-04-04T02:06:01.416Z,95.709229
2019-04-04T02:06:13.272Z,95.812988
2019-04-04T02:06:25.108Z,95.812988
2019-04-04T02:06:36.942Z,95.812988
2019-04-04T02:06:49.765Z,95.916748
2019-04-04T02:07:02.605Z,95.916748
2019-04-04T02:07:14.428Z,95.916748
2019-04-04T02:07:27.776Z,95.916748
2019-04-04T02:07:38.090Z,96.020508
2019-04-04T02:07:49.992Z,96.020508
2019-04-04T02:08:02.772Z,96.020508
2019-04-04T02:08:14.599Z,95.916748
2019-04-04T02:08:26.448Z,95.959473
2019-04-04T02:08:39.265Z,95.959473
2019-04-04T02:08:51.103Z,95.855713
2019-04-04T02:09:03.931Z,95.855713
2019-04-04T02:09:15.775Z,95.855713
2019-04-04T02:09:27.612Z,95.855713
2019-04-04T02:09:39.454Z,95.855713
2019-04-04T02:09:51.283Z,95.855713
2019-04-04T02:10:05.093Z,95.855713
2019-04-04T02:10:15.002Z,95.855713
2019-04-04T02:10:27.004Z,95.855713
2019-04-04T02:10:38.833Z,95.855713
2019-04-04T02:10:50.670Z,95.855713
2019-04-04T02:11:05.183Z,95.855713
2019-04-04T02:11:14.344Z,95.855713
2019-04-04T02:11:26.182Z,95.959473
2019-04-04T02:11:39.005Z,95.959473
2019-04-04T02:11:50.841Z,95.959473
2019-04-04T02:12:02.684Z,96.063232
2019-04-04T02:12:14.503Z,96.063232
2019-04-04T02:12:26.348Z,96.166992
2019-04-04T02:12:39.145Z,96.166992
2019-04-04T02:12:50.019Z,96.166992
2019-04-04T02:13:01.869Z,96.270752
2019-04-04T02:13:13.699Z,96.270752
2019-04-04T02:13:25.543Z,96.270752
2019-04-04T02:13:38.907Z,96.374512
2019-04-04T02:13:48.198Z,96.374512
2019-04-04T02:14:00.031Z,96.478271
2019-04-04T02:14:12.839Z,96.582031
2019-04-04T02:15:02.432Z,96.789551
2019-04-04T02:15:15.259Z,96.893311
2019-04-04T02:15:27.140Z,96.954346
2019-04-04T02:15:39.015Z,96.954346
2019-04-04T02:15:50.842Z,96.954346
2019-04-04T02:16:02.678Z,97.058105
2019-04-04T02:16:14.894Z,97.058105
2019-04-04T02:16:26.355Z,97.058105
2019-04-04T02:16:38.194Z,97.058105
2019-04-04T02:16:51.570Z,97.058105
2019-04-04T02:17:02.840Z,97.155762
2019-04-04T02:17:14.682Z,97.155762
2019-04-04T02:17:26.510Z,97.155762
2019-04-04T02:17:38.355Z,97.259521
2019-04-04T02:17:51.014Z,97.259521
2019-04-04T02:18:02.012Z,97.259521
2019-04-04T02:18:13.845Z,97.259521
2019-04-04T02:18:26.657Z,97.363281
2019-04-04T02:18:38.493Z,97.363281